createdAt,value
2022-11-05T00:00:39.196Z,1.04
2022-11-05T00:01:39.393Z,1.04
2022-11-05T00:02:39.514Z,1.04
2022-11-05T00:03:39.697Z,1.04
2022-11-05T00:04:39.769Z,1.04
2022-11-05T00:05:39.923Z,1.04
2022-11-05T00:06:40.060Z,1.04
2022-11-05T00:07:40.235Z,1.04
2022-11-05T00:08:40.364Z,1.04
2022-11-05T00:09:40.526Z,1.04
2022-11-05T00:10:40.620Z,1.04
2022-11-05T00:11:40.703Z,1.04
2022-11-05T00:12:40.850Z,1.04
2022-11-05T00:13:41.013Z,1.04
2022-11-05T00:14:41.063Z,1.04
2022-11-05T00:15:41.202Z,1.04
2022-11-05T00:16:41.938Z,1.04
2022-11-05T00:17:41.541Z,1.04
2022-11-05T00:18:41.699Z,1.04
2022-11-05T00:19:41.796Z,1.04
2022-11-05T00:20:41.898Z,1.04
2022-11-05T00:21:42.044Z,1.04
2022-11-05T00:22:42.185Z,1.04
2022-11-05T00:23:42.298Z,1.04
2022-11-05T00:24:42.443Z,1.04
2022-11-05T00:25:42.602Z,1.04
2022-11-05T00:26:42.756Z,1.04
2022-11-05T00:27:42.917Z,1.04
2022-11-05T00:28:43.055Z,1.04
2022-11-05T00:29:43.731Z,1.04
2022-11-05T00:30:43.352Z,1.04
2022-11-05T00:31:43.497Z,1.04
2022-11-05T00:32:43.614Z,1.04
2022-11-05T00:33:43.730Z,1.04
2022-11-05T00:34:43.868Z,1.04
2022-11-05T00:35:44.022Z,1.04
2022-11-05T00:36:44.166Z,1.04
2022-11-05T00:37:48.804Z,1.04
2022-11-05T00:38:44.465Z,1.04
2022-11-05T00:39:44.622Z,1.04
2022-11-05T00:40:44.773Z,1.04
2022-11-05T00:41:44.945Z,1.04
2022-11-05T00:42:45.092Z,1.04
2022-11-05T00:43:45.231Z,1.04
2022-11-05T00:44:45.997Z,1.04
2022-11-05T00:45:45.468Z,1.04
2022-11-05T00:46:45.633Z,1.04
2022-11-05T00:47:45.778Z,1.04
2022-11-05T00:48:45.926Z,1.04
2022-11-05T00:49:46.092Z,1.04
2022-11-05T00:50:46.208Z,1.04
2022-11-05T00:51:46.340Z,1.04
2022-11-05T00:52:46.487Z,1.04
2022-11-05T00:53:46.649Z,1.04
2022-11-05T00:54:46.801Z,1.04
2022-11-05T00:55:46.954Z,1.04
2022-11-05T00:56:47.101Z,1.04
2022-11-05T00:57:47.200Z,1.04
2022-11-05T00:58:47.356Z,1.04
2022-11-05T00:59:48.006Z,1.04
2022-11-05T01:00:47.646Z,1.04
2022-11-05T01:01:47.858Z,1.04
2022-11-05T01:02:48.021Z,1.04
2022-11-05T01:03:51.604Z,1.04
2022-11-05T01:04:48.203Z,1.04
2022-11-05T01:05:48.371Z,1.04
2022-11-05T01:06:48.516Z,1.04
2022-11-05T01:07:48.690Z,1.04
2022-11-05T01:08:48.820Z,1.04
2022-11-05T01:09:48.926Z,1.04
2022-11-05T01:10:49.069Z,1.04
2022-11-05T01:11:49.181Z,1.04
2022-11-05T01:12:49.349Z,1.04
2022-11-05T01:13:49.485Z,1.04
2022-11-05T01:14:50.252Z,1.04
2022-11-05T01:15:49.771Z,1.04
2022-11-05T01:16:49.893Z,1.04
2022-11-05T01:17:50.038Z,1.04
2022-11-05T01:18:50.191Z,1.04
2022-11-05T01:19:50.345Z,1.04
2022-11-05T01:20:50.498Z,1.04
2022-11-05T01:21:50.636Z,1.04
2022-11-05T01:22:50.741Z,1.04
2022-11-05T01:23:50.913Z,1.04
2022-11-05T01:24:51.002Z,1.04
2022-11-05T01:25:51.252Z,1.04
2022-11-05T01:26:52.004Z,1.04
2022-11-05T01:27:51.502Z,1.04
2022-11-05T01:28:51.767Z,1.04
2022-11-05T01:29:52.436Z,1.04
2022-11-05T01:30:51.941Z,1.04
2022-11-05T01:31:52.059Z,1.04
2022-11-05T01:32:52.209Z,1.04
2022-11-05T01:33:52.411Z,1.04
2022-11-05T01:34:52.654Z,1.04
2022-11-05T01:35:52.661Z,1.04
2022-11-05T01:36:53.313Z,1.04
2022-11-05T01:37:52.911Z,1.04
2022-11-05T01:38:53.064Z,1.04
2022-11-05T01:39:53.237Z,1.04
2022-11-05T01:40:53.380Z,1.04
2022-11-05T01:41:53.528Z,1.04
2022-11-05T01:42:53.678Z,1.04
2022-11-05T01:43:53.837Z,1.04
2022-11-05T01:44:54.559Z,1.04
2022-11-05T01:45:54.117Z,1.04
2022-11-05T01:46:54.272Z,1.04
2022-11-05T01:47:54.454Z,1.04
2022-11-05T01:48:58.691Z,1.04
2022-11-05T01:49:54.722Z,1.04
2022-11-05T01:50:54.842Z,1.04
2022-11-05T01:51:54.990Z,1.04
2022-11-05T01:52:55.714Z,1.04
2022-11-05T01:53:55.238Z,1.04
2022-11-05T01:54:55.401Z,1.04
2022-11-05T01:55:55.546Z,1.04
2022-11-05T01:56:55.701Z,1.04
2022-11-05T01:57:55.808Z,1.04
2022-11-05T01:58:55.961Z,1.04
2022-11-05T01:59:56.586Z,1.04
2022-11-05T02:00:56.243Z,1.04
2022-11-05T02:01:56.483Z,1.04
2022-11-05T02:02:56.642Z,1.04
2022-11-05T02:03:56.702Z,1.04
2022-11-05T02:04:56.820Z,1.04
2022-11-05T02:05:56.967Z,1.04
2022-11-05T02:06:57.596Z,1.04
2022-11-05T02:07:57.220Z,1.04
2022-11-05T02:08:57.331Z,1.04
2022-11-05T02:09:57.470Z,1.04
2022-11-05T02:10:57.639Z,1.04
2022-11-05T02:11:57.765Z,1.04
2022-11-05T02:12:57.921Z,1.04
2022-11-05T02:13:58.086Z,1.04
2022-11-05T02:14:58.735Z,1.04
2022-11-05T02:15:58.315Z,1.04
2022-11-05T02:16:58.472Z,1.04
2022-11-05T02:17:58.629Z,1.04
2022-11-05T02:18:58.788Z,1.04
2022-11-05T02:19:58.933Z,1.04
2022-11-05T02:20:59.096Z,1.04
2022-11-05T02:21:59.266Z,1.04
2022-11-05T02:22:59.399Z,1.04
2022-11-05T02:23:59.570Z,1.04
2022-11-05T02:24:59.663Z,1.04
2022-11-05T02:25:59.795Z,1.04
2022-11-05T02:26:59.943Z,1.04
2022-11-05T02:28:00.062Z,1.04
2022-11-05T02:29:00.190Z,1.04
2022-11-05T02:30:00.919Z,1.04
2022-11-05T02:31:00.494Z,1.04
2022-11-05T02:32:00.665Z,1.04
2022-11-05T02:33:00.810Z,1.04
2022-11-05T02:34:00.962Z,1.04
2022-11-05T02:35:01.103Z,1.04
2022-11-05T02:36:01.262Z,1.04
2022-11-05T02:37:01.413Z,1.04
2022-11-05T02:38:01.553Z,1.04
2022-11-05T02:39:01.620Z,1.04
2022-11-05T02:40:01.718Z,1.04
2022-11-05T02:41:01.862Z,1.04
2022-11-05T02:42:05.115Z,1.04
2022-11-05T02:43:02.185Z,1.04
2022-11-05T02:44:02.325Z,1.04
2022-11-05T02:45:03.101Z,1.04
2022-11-05T02:46:02.620Z,1.04
2022-11-05T02:47:02.786Z,1.04
2022-11-05T02:48:02.933Z,1.04
2022-11-05T02:49:03.088Z,1.04
2022-11-05T02:50:03.237Z,1.04
2022-11-05T02:51:03.392Z,1.04
2022-11-05T02:52:03.539Z,1.04
2022-11-05T02:53:03.689Z,1.04
2022-11-05T02:54:03.844Z,1.04
2022-11-05T02:55:03.993Z,1.04
2022-11-05T02:56:04.106Z,1.04
2022-11-05T02:57:04.256Z,1.04
2022-11-05T02:58:04.352Z,1.04
2022-11-05T02:59:04.449Z,1.04
2022-11-05T03:00:05.159Z,1.04
2022-11-05T03:01:04.695Z,1.04
2022-11-05T03:02:04.951Z,1.04
2022-11-05T03:03:05.020Z,1.04
2022-11-05T03:04:05.056Z,1.04
2022-11-05T03:05:05.144Z,1.04
2022-11-05T03:06:05.303Z,1.04
2022-11-05T03:07:05.461Z,1.04
2022-11-05T03:08:05.613Z,1.04
2022-11-05T03:09:05.771Z,1.04
2022-11-05T03:10:05.912Z,1.04
2022-11-05T03:11:06.071Z,1.04
2022-11-05T03:12:06.226Z,1.04
2022-11-05T03:13:06.374Z,1.04
2022-11-05T03:14:06.531Z,1.04
2022-11-05T03:15:07.231Z,1.04
2022-11-05T03:16:06.820Z,1.04
2022-11-05T03:17:06.966Z,1.04
2022-11-05T03:18:07.079Z,1.04
2022-11-05T03:19:07.231Z,1.04
2022-11-05T03:20:07.332Z,1.04
2022-11-05T03:21:07.497Z,1.04
2022-11-05T03:22:07.598Z,1.04
2022-11-05T03:23:07.972Z,1.04
2022-11-05T03:24:07.852Z,1.04
2022-11-05T03:25:08.019Z,1.04
2022-11-05T03:26:08.141Z,1.04
2022-11-05T03:27:08.295Z,1.04
2022-11-05T03:28:08.445Z,1.04
2022-11-05T03:29:08.624Z,1.04
2022-11-05T03:30:09.338Z,1.04
2022-11-05T03:31:08.852Z,1.04
2022-11-05T03:32:09.010Z,1.04
2022-11-05T03:33:09.413Z,1.04
2022-11-05T03:34:09.335Z,1.04
2022-11-05T03:35:09.462Z,1.04
2022-11-05T03:36:09.604Z,1.04
2022-11-05T03:37:09.763Z,1.04
2022-11-05T03:38:09.904Z,1.04
2022-11-05T03:39:10.027Z,1.04
2022-11-05T03:40:10.184Z,1.04
2022-11-05T03:41:10.318Z,1.04
2022-11-05T03:42:10.491Z,1.04
2022-11-05T03:43:10.883Z,1.04
2022-11-05T03:44:10.771Z,1.04
2022-11-05T03:45:11.575Z,1.04
2022-11-05T03:46:11.063Z,1.04
2022-11-05T03:47:11.237Z,1.04
2022-11-05T03:48:11.452Z,1.04
2022-11-05T03:49:11.483Z,1.04
2022-11-05T03:50:11.581Z,1.04
2022-11-05T03:51:11.688Z,1.04
2022-11-05T03:52:11.825Z,1.04
2022-11-05T03:53:12.233Z,1.04
2022-11-05T03:54:12.091Z,1.04
2022-11-05T03:55:12.193Z,1.04
2022-11-05T03:56:12.332Z,1.04
2022-11-05T03:57:12.447Z,1.04
2022-11-05T03:58:12.583Z,1.04
2022-11-05T03:59:12.730Z,1.04
2022-11-05T04:00:12.897Z,1.04
2022-11-05T04:01:13.052Z,1.04
2022-11-05T04:02:13.238Z,1.04
2022-11-05T04:03:13.637Z,1.04
2022-11-05T04:04:13.506Z,1.04
2022-11-05T04:05:13.682Z,1.04
2022-11-05T04:06:14.079Z,1.04
2022-11-05T04:07:13.971Z,1.04
2022-11-05T04:08:14.661Z,1.04
2022-11-05T04:09:14.214Z,1.04
2022-11-05T04:10:14.375Z,1.04
2022-11-05T04:11:14.517Z,1.04
2022-11-05T04:12:14.692Z,1.04
2022-11-05T04:13:14.830Z,1.04
2022-11-05T04:14:14.973Z,1.04
2022-11-05T04:15:15.557Z,1.04
2022-11-05T04:16:15.220Z,1.04
2022-11-05T04:17:15.382Z,1.04
2022-11-05T04:18:15.529Z,1.04
2022-11-05T04:19:15.685Z,1.04
2022-11-05T04:20:15.834Z,1.04
2022-11-05T04:21:15.984Z,1.04
2022-11-05T04:22:16.145Z,1.04
2022-11-05T04:23:16.293Z,1.04
2022-11-05T04:24:16.445Z,1.04
2022-11-05T04:25:16.634Z,1.04
2022-11-05T04:26:16.741Z,1.04
2022-11-05T04:27:16.892Z,1.04
2022-11-05T04:28:17.006Z,1.04
2022-11-05T04:29:17.156Z,1.04
2022-11-05T04:30:17.835Z,1.04
2022-11-05T04:31:17.446Z,1.04
2022-11-05T04:32:17.604Z,1.04
2022-11-05T04:33:17.758Z,1.04
2022-11-05T04:34:17.903Z,1.04
2022-11-05T04:35:18.054Z,1.04
2022-11-05T04:36:18.215Z,1.04
2022-11-05T04:37:18.374Z,1.04
2022-11-05T04:38:18.516Z,1.04
2022-11-05T04:39:18.658Z,1.04
2022-11-05T04:40:18.812Z,1.04
2022-11-05T04:41:18.970Z,1.04
2022-11-05T04:42:19.125Z,1.04
2022-11-05T04:43:19.729Z,1.04
2022-11-05T04:44:19.374Z,1.04
2022-11-05T04:45:20.051Z,1.04
2022-11-05T04:46:19.663Z,1.04
2022-11-05T04:47:19.821Z,1.04
2022-11-05T04:48:19.975Z,1.04
2022-11-05T04:49:20.065Z,1.04
2022-11-05T04:50:20.232Z,1.04
2022-11-05T04:51:20.391Z,1.04
2022-11-05T04:52:20.560Z,1.04
2022-11-05T04:53:20.684Z,1.04
2022-11-05T04:54:20.849Z,1.04
2022-11-05T04:55:20.994Z,1.04
2022-11-05T04:56:21.093Z,1.04
2022-11-05T04:57:21.247Z,1.04
2022-11-05T04:58:21.399Z,1.04
2022-11-05T04:59:21.550Z,1.04
2022-11-05T05:00:22.245Z,1.04
2022-11-05T05:01:21.958Z,1.04
2022-11-05T05:02:22.069Z,1.04
2022-11-05T05:03:22.160Z,1.04
2022-11-05T05:04:22.267Z,1.04
2022-11-05T05:05:22.412Z,1.04
2022-11-05T05:06:22.587Z,1.04
2022-11-05T05:07:22.658Z,1.04
2022-11-05T05:08:22.791Z,1.04
2022-11-05T05:09:23.632Z,1.04
2022-11-05T05:10:23.117Z,1.04
2022-11-05T05:11:23.281Z,1.04
2022-11-05T05:12:23.416Z,1.04
2022-11-05T05:13:23.572Z,1.04
2022-11-05T05:14:23.723Z,1.04
2022-11-05T05:15:24.472Z,1.04
2022-11-05T05:16:24.032Z,1.04
2022-11-05T05:17:24.121Z,1.04
2022-11-05T05:18:24.281Z,1.04
2022-11-05T05:19:24.437Z,1.04
2022-11-05T05:20:24.579Z,1.04
2022-11-05T05:21:24.777Z,1.04
2022-11-05T05:22:24.873Z,1.04
2022-11-05T05:23:24.999Z,1.04
2022-11-05T05:24:25.176Z,1.04
2022-11-05T05:25:25.292Z,1.04
2022-11-05T05:26:25.440Z,1.04
2022-11-05T05:27:25.688Z,1.04
2022-11-05T05:28:25.902Z,1.04
2022-11-05T05:29:26.163Z,1.04
2022-11-05T05:30:26.817Z,1.04
2022-11-05T05:31:26.351Z,2
2022-11-05T05:32:26.507Z,2
2022-11-05T05:33:26.665Z,2
2022-11-05T05:34:26.827Z,2
2022-11-05T05:35:26.961Z,2
2022-11-05T05:36:27.112Z,3.04
2022-11-05T05:37:27.265Z,3.04
2022-11-05T05:38:27.414Z,4
2022-11-05T05:39:27.567Z,5.04
2022-11-05T05:40:27.686Z,6
2022-11-05T05:41:27.814Z,8
2022-11-05T05:42:27.983Z,10
2022-11-05T05:43:28.147Z,11.04
2022-11-05T05:44:28.281Z,13.04
2022-11-05T05:45:28.978Z,15.04
2022-11-05T05:46:28.570Z,18
2022-11-05T05:47:28.728Z,23.04
2022-11-05T05:48:28.834Z,27.04
2022-11-05T05:49:28.940Z,31.04
2022-11-05T05:50:29.086Z,34
2022-11-05T05:51:29.241Z,36
2022-11-05T05:52:29.392Z,41.04
2022-11-05T05:53:29.534Z,49.04
2022-11-05T05:54:32.774Z,55.04
2022-11-05T05:55:29.843Z,67.04
2022-11-05T05:56:30.001Z,76
2022-11-05T05:57:30.160Z,81.04
2022-11-05T05:58:30.310Z,95.04
2022-11-05T05:59:30.530Z,105.04
2022-11-05T06:00:31.142Z,123.04
2022-11-05T06:01:30.782Z,154
2022-11-05T06:02:31.029Z,181.12
2022-11-05T06:03:30.998Z,211.04
2022-11-05T06:04:31.126Z,227.04
2022-11-05T06:05:31.248Z,238.08
2022-11-05T06:06:31.417Z,279.04
2022-11-05T06:07:36.024Z,324
2022-11-05T06:08:31.731Z,332.16
2022-11-05T06:09:31.810Z,356.16
2022-11-05T06:10:32.041Z,380.16
2022-11-05T06:11:32.124Z,376
2022-11-05T06:12:32.274Z,373.12
2022-11-05T06:13:32.442Z,377.28
2022-11-05T06:14:32.550Z,399.04
2022-11-05T06:15:35.968Z,432
2022-11-05T06:16:32.861Z,484.16
2022-11-05T06:17:32.977Z,550.08
2022-11-05T06:18:33.092Z,567.04
2022-11-05T06:19:33.233Z,541.12
2022-11-05T06:20:33.377Z,506.24
2022-11-05T06:21:33.526Z,512
2022-11-05T06:22:33.686Z,534.08
2022-11-05T06:23:33.838Z,604.16
2022-11-05T06:24:33.997Z,687.36
2022-11-05T06:25:38.509Z,736
2022-11-05T06:26:34.291Z,709.12
2022-11-05T06:27:34.443Z,683.52
2022-11-05T06:28:34.609Z,683.52
2022-11-05T06:29:35.360Z,676.48
2022-11-05T06:30:34.802Z,669.44
2022-11-05T06:31:34.888Z,682.24
2022-11-05T06:32:35.049Z,682.24
2022-11-05T06:33:35.212Z,668.16
2022-11-05T06:34:35.386Z,639.04
2022-11-05T06:35:35.552Z,590.08
2022-11-05T06:36:36.586Z,565.12
2022-11-05T06:37:35.864Z,642.24
2022-11-05T06:38:36.010Z,762.24
2022-11-05T06:39:36.167Z,780.16
2022-11-05T06:40:36.292Z,799.36
2022-11-05T06:41:50.932Z,878.08
2022-11-05T06:42:36.574Z,1002.24
2022-11-05T06:43:36.738Z,1020.16
2022-11-05T06:44:37.440Z,1089.28
2022-11-05T06:45:37.014Z,1181.44
2022-11-05T06:46:37.160Z,1169.28
2022-11-05T06:47:37.267Z,1013.12
2022-11-05T06:48:37.426Z,870.4
2022-11-05T06:49:37.531Z,947.2
2022-11-05T06:50:37.678Z,980.48
2022-11-05T06:51:37.825Z,917.12
2022-11-05T06:52:40.997Z,969.6
2022-11-05T06:53:38.132Z,1010.56
2022-11-05T06:54:38.281Z,1004.16
2022-11-05T06:55:38.429Z,914.56
2022-11-05T06:56:38.599Z,821.12
2022-11-05T06:57:38.694Z,772.48
2022-11-05T06:58:38.799Z,798.08
2022-11-05T06:59:39.433Z,874.24
2022-11-05T07:00:39.148Z,1151.36
2022-11-05T07:01:39.364Z,1289.6
2022-11-05T07:02:39.435Z,1232
2022-11-05T07:03:39.545Z,1262.08
2022-11-05T07:04:39.643Z,1365.76
2022-11-05T07:05:39.808Z,1360.64
2022-11-05T07:06:39.948Z,1441.28
2022-11-05T07:07:40.056Z,1528.32
2022-11-05T07:08:40.200Z,1573.12
2022-11-05T07:09:40.377Z,1646.08
2022-11-05T07:10:40.512Z,1793.28
2022-11-05T07:11:40.595Z,2158.08
2022-11-05T07:12:40.735Z,2471.68
2022-11-05T07:13:41.535Z,2795.52
2022-11-05T07:14:41.692Z,2862.08
2022-11-05T07:15:41.210Z,2703.36
2022-11-05T07:16:41.314Z,2547.2
2022-11-05T07:17:41.418Z,2629.12
2022-11-05T07:18:41.564Z,2851.84
2022-11-05T07:19:41.731Z,2856.96
2022-11-05T07:20:41.883Z,2933.76
2022-11-05T07:21:42.030Z,3182.08
2022-11-05T07:22:42.185Z,3356.16
2022-11-05T07:23:42.337Z,3648
2022-11-05T07:24:42.482Z,3870.72
2022-11-05T07:25:42.643Z,4006.4
2022-11-05T07:26:42.789Z,3950.08
2022-11-05T07:27:42.879Z,3955.2
2022-11-05T07:28:42.985Z,3914.24
2022-11-05T07:29:43.104Z,3499.52
2022-11-05T07:30:43.176Z,3233.28
2022-11-05T07:31:43.285Z,3243.52
2022-11-05T07:32:43.439Z,3361.28
2022-11-05T07:33:43.591Z,3371.52
2022-11-05T07:34:43.736Z,3566.08
2022-11-05T07:35:43.939Z,3796.48
2022-11-05T07:36:44.021Z,3865.6
2022-11-05T07:37:44.155Z,3909.12
2022-11-05T07:38:44.310Z,4011.52
2022-11-05T07:39:44.452Z,3860.48
2022-11-05T07:40:44.616Z,3568.64
2022-11-05T07:41:44.772Z,3223.04
2022-11-05T07:42:44.873Z,3197.44
2022-11-05T07:43:45.019Z,3304.96
2022-11-05T07:44:45.746Z,3330.56
2022-11-05T07:45:45.310Z,3404.8
2022-11-05T07:46:45.469Z,3481.6
2022-11-05T07:47:45.626Z,3888.64
2022-11-05T07:48:45.782Z,4224
2022-11-05T07:49:45.876Z,4833.28
2022-11-05T07:50:46.032Z,4907.52
2022-11-05T07:51:46.188Z,4672
2022-11-05T07:52:46.294Z,5056
2022-11-05T07:53:46.438Z,5591.04
2022-11-05T07:54:46.579Z,5734.4
2022-11-05T07:55:46.707Z,5872.64
2022-11-05T07:56:46.852Z,5386.24
2022-11-05T07:57:47.008Z,5096.96
2022-11-05T07:58:47.150Z,5207.04
2022-11-05T07:59:47.767Z,5273.6
2022-11-05T08:00:47.508Z,5396.48
2022-11-05T08:01:47.800Z,5406.72
2022-11-05T08:02:47.831Z,5437.44
2022-11-05T08:03:47.938Z,5601.28
2022-11-05T08:04:47.939Z,6184.96
2022-11-05T08:05:48.100Z,6359.04
2022-11-05T08:06:48.197Z,5893.12
2022-11-05T08:07:48.358Z,5529.6
2022-11-05T08:08:48.521Z,4915.2
2022-11-05T08:09:48.649Z,4321.28
2022-11-05T08:10:48.744Z,3980.8
2022-11-05T08:11:52.233Z,3717.12
2022-11-05T08:12:49.015Z,4152.32
2022-11-05T08:13:49.163Z,4341.76
2022-11-05T08:14:49.942Z,4183.04
2022-11-05T08:15:49.466Z,3543.04
2022-11-05T08:16:49.608Z,2818.56
2022-11-05T08:17:49.731Z,2941.44
2022-11-05T08:18:49.823Z,3425.28
2022-11-05T08:19:49.972Z,4648.96
2022-11-05T08:20:50.122Z,5376
2022-11-05T08:21:50.278Z,6394.88
2022-11-05T08:22:50.426Z,8192
2022-11-05T08:23:50.576Z,10086.399
2022-11-05T08:24:50.737Z,11345.92
2022-11-05T08:25:50.894Z,11939.84
2022-11-05T08:26:50.984Z,11694.08
2022-11-05T08:27:51.375Z,9072.64
2022-11-05T08:28:51.289Z,6686.72
2022-11-05T08:29:52.024Z,6645.76
2022-11-05T08:30:51.582Z,7111.68
2022-11-05T08:31:51.755Z,7833.6
2022-11-05T08:32:51.896Z,8698.88
2022-11-05T08:33:52.052Z,9359.359
2022-11-05T08:34:52.197Z,8007.68
2022-11-05T08:35:52.364Z,6917.12
2022-11-05T08:36:52.514Z,6666.24
2022-11-05T08:37:52.661Z,6927.36
2022-11-05T08:38:52.816Z,7347.2
2022-11-05T08:39:52.954Z,7296
2022-11-05T08:40:53.137Z,7244.8
2022-11-05T08:41:53.274Z,6876.16
2022-11-05T08:42:53.425Z,6118.4
2022-11-05T08:43:53.581Z,5708.8
2022-11-05T08:44:54.693Z,5719.04
2022-11-05T08:45:53.866Z,5760
2022-11-05T08:46:54.010Z,5662.72
2022-11-05T08:47:54.127Z,5760
2022-11-05T08:48:54.278Z,7336.96
2022-11-05T08:49:54.427Z,9497.6
2022-11-05T08:50:54.526Z,11233.279
2022-11-05T08:51:54.677Z,10470.399
2022-11-05T08:52:54.842Z,8171.52
2022-11-05T08:53:55.061Z,6891.52
2022-11-05T08:54:55.262Z,6169.6
2022-11-05T08:55:55.314Z,5754.88
2022-11-05T08:56:55.485Z,5335.04
2022-11-05T08:57:56.215Z,4456.96
2022-11-05T08:58:55.817Z,3704.32
2022-11-05T08:59:56.685Z,3345.92
2022-11-05T09:01:00.374Z,3187.2
2022-11-05T09:01:56.394Z,3256.32
2022-11-05T09:02:56.385Z,3325.44
2022-11-05T09:03:56.561Z,3504.64
2022-11-05T09:04:56.653Z,3735.04
2022-11-05T09:05:56.806Z,3732.48
2022-11-05T09:06:56.954Z,3706.88
2022-11-05T09:08:00.710Z,4032
2022-11-05T09:08:57.197Z,4183.04
2022-11-05T09:09:57.352Z,4820.48
2022-11-05T09:10:57.447Z,5230.08
2022-11-05T09:12:11.512Z,4897.28
2022-11-05T09:12:57.714Z,4654.08
2022-11-05T09:13:57.821Z,4864
2022-11-05T09:14:58.723Z,5204.48
2022-11-05T09:15:58.104Z,5396.48
2022-11-05T09:16:58.269Z,5273.6
2022-11-05T09:17:58.422Z,4840.96
2022-11-05T09:18:58.504Z,4541.44
2022-11-05T09:19:58.696Z,4592.64
2022-11-05T09:20:58.817Z,4943.36
2022-11-05T09:21:59.045Z,5135.36
2022-11-05T09:22:59.135Z,5268.48
2022-11-05T09:23:59.291Z,5611.52
2022-11-05T09:24:59.436Z,6425.6
2022-11-05T09:25:59.549Z,7265.28
2022-11-05T09:26:59.691Z,8325.12
2022-11-05T09:27:59.831Z,9180.16
2022-11-05T09:28:59.941Z,10429.439
2022-11-05T09:30:00.672Z,11571.2
2022-11-05T09:31:00.236Z,12769.279
2022-11-05T09:32:00.358Z,14520.319
2022-11-05T09:33:00.515Z,14192.64
2022-11-05T09:34:00.648Z,12789.76
2022-11-05T09:35:00.795Z,11079.68
2022-11-05T09:36:00.958Z,9876.479
2022-11-05T09:37:01.099Z,9553.92
2022-11-05T09:38:01.486Z,10782.72
2022-11-05T09:39:01.412Z,24944.64
2022-11-05T09:40:01.524Z,15708.159
2022-11-05T09:41:01.660Z,21032.96
2022-11-05T09:42:01.803Z,23080.96
2022-11-05T09:43:01.959Z,11632.64
2022-11-05T09:44:02.115Z,17428.48
2022-11-05T09:45:02.842Z,15646.72
2022-11-05T09:46:02.367Z,12810.239
2022-11-05T09:47:02.554Z,17172.48
2022-11-05T09:48:02.678Z,15943.68
2022-11-05T09:49:02.833Z,20449.28
2022-11-05T09:50:02.930Z,18882.56
2022-11-05T09:51:03.023Z,24412.16
2022-11-05T09:52:03.186Z,29020.16
2022-11-05T09:53:03.325Z,31866.88
2022-11-05T09:54:03.483Z,32665.6
2022-11-05T09:55:03.638Z,29675.52
2022-11-05T09:56:03.790Z,40038.4
2022-11-05T09:57:03.928Z,28794.88
2022-11-05T09:58:04.081Z,29900.8
2022-11-05T09:59:04.237Z,28160
2022-11-05T10:00:04.875Z,32931.84
2022-11-05T10:01:04.631Z,33443.84
2022-11-05T10:02:04.781Z,28037.12
2022-11-05T10:03:04.739Z,25477.12
2022-11-05T10:04:04.890Z,23511.04
2022-11-05T10:05:09.362Z,23101.44
2022-11-05T10:06:05.091Z,22302.72
2022-11-05T10:07:05.227Z,23531.52
2022-11-05T10:08:05.408Z,19650.56
2022-11-05T10:09:05.552Z,20736
2022-11-05T10:10:05.644Z,19712
2022-11-05T10:11:05.831Z,16527.36
2022-11-05T10:12:05.963Z,16455.68
2022-11-05T10:13:06.103Z,18503.68
2022-11-05T10:14:06.271Z,20131.84
2022-11-05T10:15:06.358Z,21483.52
2022-11-05T10:16:06.491Z,33771.52
2022-11-05T10:17:06.644Z,30638.08
2022-11-05T10:18:06.764Z,29409.28
2022-11-05T10:19:06.912Z,31825.92
2022-11-05T10:20:07.072Z,27791.36
2022-11-05T10:21:07.223Z,31662.08
2022-11-05T10:22:07.491Z,32215.04
2022-11-05T10:23:07.522Z,33259.52
2022-11-05T10:24:07.657Z,33587.2
2022-11-05T10:25:07.785Z,24330.24
2022-11-05T10:26:07.910Z,24760.32
2022-11-05T10:27:08.036Z,21217.28
2022-11-05T10:28:08.170Z,21176.32
2022-11-05T10:29:08.309Z,21585.92
2022-11-05T10:30:09.056Z,21422.08
2022-11-05T10:31:08.654Z,25784.32
2022-11-05T10:32:08.783Z,22528
2022-11-05T10:33:09.162Z,19968
2022-11-05T10:34:09.105Z,16680.96
2022-11-05T10:35:09.248Z,14233.6
2022-11-05T10:36:09.396Z,11212.8
2022-11-05T10:37:09.546Z,9973.76
2022-11-05T10:38:09.656Z,10137.6
2022-11-05T10:39:09.841Z,11765.76
2022-11-05T10:40:09.997Z,12595.2
2022-11-05T10:41:10.067Z,12912.64
2022-11-05T10:42:10.207Z,12677.12
2022-11-05T10:43:10.678Z,11694.08
2022-11-05T10:44:13.538Z,10659.84
2022-11-05T10:45:10.545Z,9656.319
2022-11-05T10:46:10.687Z,9118.72
2022-11-05T10:47:10.795Z,8903.68
2022-11-05T10:48:10.912Z,8545.28
2022-11-05T10:49:11.055Z,8058.88
2022-11-05T10:50:11.756Z,8314.88
2022-11-05T10:51:11.369Z,8960
2022-11-05T10:52:11.494Z,8381.44
2022-11-05T10:53:11.902Z,8110.08
2022-11-05T10:54:11.730Z,7992.32
2022-11-05T10:55:11.877Z,7690.24
2022-11-05T10:56:12.025Z,7982.08
2022-11-05T10:57:12.134Z,8314.88
2022-11-05T10:58:12.324Z,8448
2022-11-05T10:59:12.440Z,8376.32
2022-11-05T11:00:13.112Z,8535.04
2022-11-05T11:01:12.748Z,9553.92
2022-11-05T11:02:12.875Z,10547.2
2022-11-05T11:03:13.303Z,11048.96
2022-11-05T11:04:13.047Z,11304.96
2022-11-05T11:05:13.198Z,11243.52
2022-11-05T11:06:13.362Z,11182.08
2022-11-05T11:07:13.468Z,11212.8
2022-11-05T11:08:13.607Z,11806.72
2022-11-05T11:09:13.756Z,19640.32
2022-11-05T11:10:13.900Z,19558.4
2022-11-05T11:11:14.005Z,20387.84
2022-11-05T11:12:14.170Z,21073.92
2022-11-05T11:13:14.310Z,21811.2
2022-11-05T11:14:14.473Z,22753.28
2022-11-05T11:15:15.183Z,18636.8
2022-11-05T11:16:14.754Z,24064
2022-11-05T11:17:14.854Z,23592.96
2022-11-05T11:18:15.014Z,23060.48
2022-11-05T11:19:15.167Z,22589.44
2022-11-05T11:20:15.271Z,22835.2
2022-11-05T11:21:15.424Z,23777.28
2022-11-05T11:22:15.578Z,24965.12
2022-11-05T11:23:16.030Z,25722.88
2022-11-05T11:24:15.849Z,25927.68
2022-11-05T11:25:15.987Z,27586.56
2022-11-05T11:26:16.125Z,27648
2022-11-05T11:27:16.250Z,27893.76
2022-11-05T11:28:16.377Z,27627.52
2022-11-05T11:29:16.483Z,22753.28
2022-11-05T11:30:17.275Z,22732.8
2022-11-05T11:31:16.734Z,16824.32
2022-11-05T11:32:16.901Z,15902.72
2022-11-05T11:33:17.046Z,14735.359
2022-11-05T11:34:17.189Z,20889.6
2022-11-05T11:35:17.344Z,22487.04
2022-11-05T11:36:17.447Z,23613.44
2022-11-05T11:37:19.501Z,24084.48
2022-11-05T11:38:17.695Z,24555.52
2022-11-05T11:39:17.857Z,26398.72
2022-11-05T11:40:17.952Z,27340.8
2022-11-05T11:41:18.109Z,27176.96
2022-11-05T11:42:18.234Z,27258.88
2022-11-05T11:43:18.355Z,26931.2
2022-11-05T11:44:18.508Z,26439.68
2022-11-05T11:45:19.236Z,25702.4
2022-11-05T11:46:18.805Z,25272.32
2022-11-05T11:47:18.912Z,25559.04
2022-11-05T11:48:19.038Z,25825.28
2022-11-05T11:49:19.173Z,25722.88
2022-11-05T11:50:19.272Z,25456.64
2022-11-05T11:51:19.443Z,24760.32
2022-11-05T11:52:19.581Z,24494.08
2022-11-05T11:53:19.725Z,24350.72
2022-11-05T11:54:19.883Z,24084.48
2022-11-05T11:55:20.055Z,24248.32
2022-11-05T11:56:20.148Z,24289.28
2022-11-05T11:57:20.285Z,24207.36
2022-11-05T11:58:20.468Z,23982.08
2022-11-05T11:59:20.590Z,23121.92
2022-11-05T12:00:21.266Z,22036.48
2022-11-05T12:01:20.947Z,20992
2022-11-05T12:02:21.105Z,20080.64
2022-11-05T12:03:21.388Z,19128.32
2022-11-05T12:04:21.309Z,16291.84
2022-11-05T12:05:21.444Z,12564.479
2022-11-05T12:06:21.587Z,11479.04
2022-11-05T12:07:21.770Z,10803.2
2022-11-05T12:08:21.898Z,9226.24
2022-11-05T12:09:22.046Z,8509.439
2022-11-05T12:10:22.203Z,7577.6
2022-11-05T12:11:22.354Z,7587.84
2022-11-05T12:12:22.508Z,9072.64
2022-11-05T12:13:22.653Z,9466.88
2022-11-05T12:14:22.803Z,7557.12
2022-11-05T12:15:23.479Z,6671.36
2022-11-05T12:16:23.056Z,5158.4
2022-11-05T12:17:23.214Z,5127.68
2022-11-05T12:18:23.363Z,4879.36
2022-11-05T12:19:23.522Z,4764.16
2022-11-05T12:20:23.670Z,4613.12
2022-11-05T12:21:40.973Z,4554.24
2022-11-05T12:22:23.925Z,4467.2
2022-11-05T12:23:24.074Z,4218.88
2022-11-05T12:24:24.231Z,3770.88
2022-11-05T12:25:24.380Z,3520
2022-11-05T12:26:24.526Z,3338.24
2022-11-05T12:27:24.685Z,3328
2022-11-05T12:28:24.788Z,3448.32
2022-11-05T12:29:24.937Z,3591.68
2022-11-05T12:30:25.704Z,3796.48
2022-11-05T12:31:25.232Z,3847.68
2022-11-05T12:32:25.407Z,3681.28
2022-11-05T12:33:25.503Z,3504.64
2022-11-05T12:34:25.591Z,3545.6
2022-11-05T12:35:25.694Z,3834.88
2022-11-05T12:36:25.844Z,4183.04
2022-11-05T12:37:25.996Z,4636.16
2022-11-05T12:38:26.148Z,5045.76
2022-11-05T12:39:26.301Z,5580.8
2022-11-05T12:40:26.449Z,6538.24
2022-11-05T12:41:26.586Z,7546.88
2022-11-05T12:42:26.645Z,8929.28